sensor_id;sensor_type;location;lat;lon;timestamp;temperature;humidity
4314;DHT22;2170;48.794;9.182;2023-07-29T00:00:25;17.80;99.90
4314;DHT22;2170;48.794;9.182;2023-07-29T00:03:35;18.00;99.90
4314;DHT22;2170;48.794;9.182;2023-07-29T00:09:17;18.00;99.90
4314;DHT22;2170;48.794;9.182;2023-07-29T00:12:23;17.90;99.90
4314;DHT22;2170;48.794;9.182;2023-07-29T00:15:07;17.80;99.90
4314;DHT22;2170;48.794;9.182;2023-07-29T00:17:44;17.80;99.90
4314;DHT22;2170;48.794;9.182;2023-07-29T00:20:32;17.60;99.90
4314;DHT22;2170;48.794;9.182;2023-07-29T00:23:07;17.80;99.90
4314;DHT22;2170;48.794;9.182;2023-07-29T00:26:07;17.80;99.90
4314;DHT22;2170;48.794;9.182;2023-07-29T00:29:10;17.80;99.90
4314;DHT22;2170;48.794;9.182;2023-07-29T00:32:04;17.80;99.90
4314;DHT22;2170;48.794;9.182;2023-07-29T00:34:47;17.70;99.90
4314;DHT22;2170;48.794;9.182;2023-07-29T00:37:29;17.70;99.90
4314;DHT22;2170;48.794;9.182;2023-07-29T00:40:20;17.80;99.90
4314;DHT22;2170;48.794;9.182;2023-07-29T00:43:07;17.80;99.90
4314;DHT22;2170;48.794;9.182;2023-07-29T00:45:58;17.80;99.90
4314;DHT22;2170;48.794;9.182;2023-07-29T00:48:52;17.80;99.90
4314;DHT22;2170;48.794;9.182;2023-07-29T00:54:49;17.80;99.90
4314;DHT22;2170;48.794;9.182;2023-07-29T00:57:45;17.80;99.90
4314;DHT22;2170;48.794;9.182;2023-07-29T01:00:39;17.80;99.90
4314;DHT22;2170;48.794;9.182;2023-07-29T01:03:26;18.00;99.90
4314;DHT22;2170;48.794;9.182;2023-07-29T01:06:23;18.00;99.90
4314;DHT22;2170;48.794;9.182;2023-07-29T01:09:30;17.80;99.90
4314;DHT22;2170;48.794;9.182;2023-07-29T01:19:20;17.70;99.90
4314;DHT22;2170;48.794;9.182;2023-07-29T01:22:40;17.70;99.90
4314;DHT22;2170;48.794;9.182;2023-07-29T01:36:03;17.80;99.90
4314;DHT22;2170;48.794;9.182;2023-07-29T01:42:21;17.80;99.90
4314;DHT22;2170;48.794;9.182;2023-07-29T01:45:27;17.80;99.90
4314;DHT22;2170;48.794;9.182;2023-07-29T01:48:38;17.80;99.90
4314;DHT22;2170;48.794;9.182;2023-07-29T01:51:30;17.80;99.90
4314;DHT22;2170;48.794;9.182;2023-07-29T01:54:53;17.80;99.90
4314;DHT22;2170;48.794;9.182;2023-07-29T01:57:43;17.80;99.90
4314;DHT22;2170;48.794;9.182;2023-07-29T02:03:57;17.90;99.90
4314;DHT22;2170;48.794;9.182;2023-07-29T02:41:27;18.10;99.90
4314;DHT22;2170;48.794;9.182;2023-07-29T02:44:04;18.20;99.90
4314;DHT22;2170;48.794;9.182;2023-07-29T02:46:47;18.30;99.90
4314;DHT22;2170;48.794;9.182;2023-07-29T02:49:35;18.10;99.90
4314;DHT22;2170;48.794;9.182;2023-07-29T02:52:21;18.00;99.90
4314;DHT22;2170;48.794;9.182;2023-07-29T03:24:52;17.90;99.90
4314;DHT22;2170;48.794;9.182;2023-07-29T03:27:27;18.00;99.90
4314;DHT22;2170;48.794;9.182;2023-07-29T03:30:12;18.00;99.90
4314;DHT22;2170;48.794;9.182;2023-07-29T03:32:52;18.00;99.90
4314;DHT22;2170;48.794;9.182;2023-07-29T03:35:35;18.00;99.90
4314;DHT22;2170;48.794;9.182;2023-07-29T03:38:10;18.00;99.90
4314;DHT22;2170;48.794;9.182;2023-07-29T03:41:02;18.00;99.90
4314;DHT22;2170;48.794;9.182;2023-07-29T03:43:44;18.10;99.90
4314;DHT22;2170;48.794;9.182;2023-07-29T03:46:37;18.00;99.90
4314;DHT22;2170;48.794;9.182;2023-07-29T03:49:06;18.10;99.90
4314;DHT22;2170;48.794;9.182;2023-07-29T03:51:47;18.10;99.90
4314;DHT22;2170;48.794;9.182;2023-07-29T03:54:28;18.10;99.90
4314;DHT22;2170;48.794;9.182;2023-07-29T03:57:05;18.10;99.90
4314;DHT22;2170;48.794;9.182;2023-07-29T03:59:48;18.10;99.90
4314;DHT22;2170;48.794;9.182;2023-07-29T04:02:35;18.10;99.90
4314;DHT22;2170;48.794;9.182;2023-07-29T04:05:30;18.10;99.90
4314;DHT22;2170;48.794;9.182;2023-07-29T04:08:28;18.10;99.90
4314;DHT22;2170;48.794;9.182;2023-07-29T04:11:59;18.10;99.90
4314;DHT22;2170;48.794;9.182;2023-07-29T04:20:29;18.00;99.90
4314;DHT22;2170;48.794;9.182;2023-07-29T04:28:31;18.00;99.90
4314;DHT22;2170;48.794;9.182;2023-07-29T04:31:23;18.00;99.90
4314;DHT22;2170;48.794;9.182;2023-07-29T04:34:27;18.00;99.90
4314;DHT22;2170;48.794;9.182;2023-07-29T04:45:00;18.00;99.90
4314;DHT22;2170;48.794;9.182;2023-07-29T04:48:00;17.90;99.90
4314;DHT22;2170;48.794;9.182;2023-07-29T04:51:08;17.90;99.90
4314;DHT22;2170;48.794;9.182;2023-07-29T04:54:10;17.90;99.90
4314;DHT22;2170;48.794;9.182;2023-07-29T05:51:13;18.10;99.90
4314;DHT22;2170;48.794;9.182;2023-07-29T05:56:48;18.20;99.90
4314;DHT22;2170;48.794;9.182;2023-07-29T05:58:18;18.20;99.90
4314;DHT22;2170;48.794;9.182;2023-07-29T06:00:26;18.30;99.90
4314;DHT22;2170;48.794;9.182;2023-07-29T06:03:15;18.40;99.90
4314;DHT22;2170;48.794;9.182;2023-07-29T06:06:02;18.40;99.90
4314;DHT22;2170;48.794;9.182;2023-07-29T06:08:45;18.50;99.90
4314;DHT22;2170;48.794;9.182;2023-07-29T06:11:27;18.60;99.90
4314;DHT22;2170;48.794;9.182;2023-07-29T06:14:16;18.80;99.90
4314;DHT22;2170;48.794;9.182;2023-07-29T06:17:06;18.80;99.90
4314;DHT22;2170;48.794;9.182;2023-07-29T06:19:53;18.80;99.90
4314;DHT22;2170;48.794;9.182;2023-07-29T06:22:35;18.80;99.90
4314;DHT22;2170;48.794;9.182;2023-07-29T06:25:30;18.90;99.90
4314;DHT22;2170;48.794;9.182;2023-07-29T06:28:09;18.90;99.90
4314;DHT22;2170;48.794;9.182;2023-07-29T06:31:06;19.10;99.90
4314;DHT22;2170;48.794;9.182;2023-07-29T06:33:42;19.10;99.90
4314;DHT22;2170;48.794;9.182;2023-07-29T06:36:25;19.10;99.90
4314;DHT22;2170;48.794;9.182;2023-07-29T06:39:26;19.20;99.90
4314;DHT22;2170;48.794;9.182;2023-07-29T06:42:05;19.20;99.90
4314;DHT22;2170;48.794;9.182;2023-07-29T06:44:57;19.20;99.90
4314;DHT22;2170;48.794;9.182;2023-07-29T06:47:41;19.10;99.90
4314;DHT22;2170;48.794;9.182;2023-07-29T06:50:28;19.10;99.90
4314;DHT22;2170;48.794;9.182;2023-07-29T06:53:07;19.10;99.90
4314;DHT22;2170;48.794;9.182;2023-07-29T06:55:41;19.20;99.90
4314;DHT22;2170;48.794;9.182;2023-07-29T06:58:27;19.20;99.90
4314;DHT22;2170;48.794;9.182;2023-07-29T07:01:02;19.10;99.90
4314;DHT22;2170;48.794;9.182;2023-07-29T07:03:34;19.10;99.90
4314;DHT22;2170;48.794;9.182;2023-07-29T07:06:13;19.10;99.90
4314;DHT22;2170;48.794;9.182;2023-07-29T07:08:56;19.10;99.90
4314;DHT22;2170;48.794;9.182;2023-07-29T07:11:40;19.20;99.90
4314;DHT22;2170;48.794;9.182;2023-07-29T07:14:48;19.20;99.90
4314;DHT22;2170;48.794;9.182;2023-07-29T07:20:29;19.20;99.90
4314;DHT22;2170;48.794;9.182;2023-07-29T07:23:07;19.30;99.90
4314;DHT22;2170;48.794;9.182;2023-07-29T07:26:08;19.20;99.90
4314;DHT22;2170;48.794;9.182;2023-07-29T07:28:45;19.30;99.90
4314;DHT22;2170;48.794;9.182;2023-07-29T07:31:32;19.30;99.90
4314;DHT22;2170;48.794;9.182;2023-07-29T07:34:18;19.30;99.90
4314;DHT22;2170;48.794;9.182;2023-07-29T07:37:00;19.40;99.90
4314;DHT22;2170;48.794;9.182;2023-07-29T07:39:35;19.40;99.90
4314;DHT22;2170;48.794;9.182;2023-07-29T07:42:14;19.40;99.90
4314;DHT22;2170;48.794;9.182;2023-07-29T07:45:14;19.50;99.90
4314;DHT22;2170;48.794;9.182;2023-07-29T07:47:57;19.50;99.90
4314;DHT22;2170;48.794;9.182;2023-07-29T07:50:29;19.50;99.90
4314;DHT22;2170;48.794;9.182;2023-07-29T07:53:04;19.60;99.90
4314;DHT22;2170;48.794;9.182;2023-07-29T07:58:36;19.70;99.90
4314;DHT22;2170;48.794;9.182;2023-07-29T08:01:34;19.70;99.90
4314;DHT22;2170;48.794;9.182;2023-07-29T08:04:36;19.80;99.90
4314;DHT22;2170;48.794;9.182;2023-07-29T08:07:14;19.90;99.90
4314;DHT22;2170;48.794;9.182;2023-07-29T08:10:07;20.00;99.90
4314;DHT22;2170;48.794;9.182;2023-07-29T08:12:55;20.00;99.90
4314;DHT22;2170;48.794;9.182;2023-07-29T08:15:34;19.90;99.90
4314;DHT22;2170;48.794;9.182;2023-07-29T08:18:26;19.90;99.90
4314;DHT22;2170;48.794;9.182;2023-07-29T08:24:18;20.30;99.90
4314;DHT22;2170;48.794;9.182;2023-07-29T08:27:06;20.40;99.90
4314;DHT22;2170;48.794;9.182;2023-07-29T08:29:50;20.40;99.90
4314;DHT22;2170;48.794;9.182;2023-07-29T08:32:33;20.40;99.90
4314;DHT22;2170;48.794;9.182;2023-07-29T08:35:09;20.40;99.90
4314;DHT22;2170;48.794;9.182;2023-07-29T08:37:58;20.50;99.90
4314;DHT22;2170;48.794;9.182;2023-07-29T08:40:45;20.70;99.90
4314;DHT22;2170;48.794;9.182;2023-07-29T08:43:47;20.80;99.90
4314;DHT22;2170;48.794;9.182;2023-07-29T08:46:32;20.80;99.90
4314;DHT22;2170;48.794;9.182;2023-07-29T08:49:50;21.00;99.90
4314;DHT22;2170;48.794;9.182;2023-07-29T08:52:39;21.10;99.90
4314;DHT22;2170;48.794;9.182;2023-07-29T08:55:16;21.30;99.90
4314;DHT22;2170;48.794;9.182;2023-07-29T08:58:05;21.40;99.90
4314;DHT22;2170;48.794;9.182;2023-07-29T09:00:52;21.60;99.90
4314;DHT22;2170;48.794;9.182;2023-07-29T09:03:28;21.80;99.90
4314;DHT22;2170;48.794;9.182;2023-07-29T09:06:03;22.10;99.90
4314;DHT22;2170;48.794;9.182;2023-07-29T09:08:41;22.10;99.90
4314;DHT22;2170;48.794;9.182;2023-07-29T09:11:21;22.40;99.90
4314;DHT22;2170;48.794;9.182;2023-07-29T09:13:59;22.50;99.90
4314;DHT22;2170;48.794;9.182;2023-07-29T09:16:29;22.60;99.90
4314;DHT22;2170;48.794;9.182;2023-07-29T09:19:04;22.40;99.90
4314;DHT22;2170;48.794;9.182;2023-07-29T09:21:47;22.60;99.90
4314;DHT22;2170;48.794;9.182;2023-07-29T09:24:46;22.80;99.90
4314;DHT22;2170;48.794;9.182;2023-07-29T09:27:33;23.00;99.90
4314;DHT22;2170;48.794;9.182;2023-07-29T09:30:05;23.30;99.90
4314;DHT22;2170;48.794;9.182;2023-07-29T09:32:35;23.50;99.90
4314;DHT22;2170;48.794;9.182;2023-07-29T09:35:12;23.70;99.90
4314;DHT22;2170;48.794;9.182;2023-07-29T09:37:45;23.80;99.90
4314;DHT22;2170;48.794;9.182;2023-07-29T09:40:22;24.10;99.90
4314;DHT22;2170;48.794;9.182;2023-07-29T09:43:00;24.20;99.90
4314;DHT22;2170;48.794;9.182;2023-07-29T09:45:34;24.30;99.90
4314;DHT22;2170;48.794;9.182;2023-07-29T09:48:03;24.10;99.90
4314;DHT22;2170;48.794;9.182;2023-07-29T09:50:37;24.00;99.90
4314;DHT22;2170;48.794;9.182;2023-07-29T09:53:10;23.80;99.90
4314;DHT22;2170;48.794;9.182;2023-07-29T09:56:02;24.10;99.90
4314;DHT22;2170;48.794;9.182;2023-07-29T09:58:50;24.30;99.90
4314;DHT22;2170;48.794;9.182;2023-07-29T10:01:29;24.10;99.90
4314;DHT22;2170;48.794;9.182;2023-07-29T10:04:25;24.20;99.90
4314;DHT22;2170;48.794;9.182;2023-07-29T10:07:07;24.40;99.90
4314;DHT22;2170;48.794;9.182;2023-07-29T10:12:44;25.10;99.90
4314;DHT22;2170;48.794;9.182;2023-07-29T10:15:25;25.10;99.90
4314;DHT22;2170;48.794;9.182;2023-07-29T10:18:10;25.30;99.90
4314;DHT22;2170;48.794;9.182;2023-07-29T10:20:58;25.60;99.90
4314;DHT22;2170;48.794;9.182;2023-07-29T10:23:47;25.70;99.90
4314;DHT22;2170;48.794;9.182;2023-07-29T10:26:29;25.40;99.90
4314;DHT22;2170;48.794;9.182;2023-07-29T10:29:19;24.80;99.90
4314;DHT22;2170;48.794;9.182;2023-07-29T10:31:58;24.50;99.90
4314;DHT22;2170;48.794;9.182;2023-07-29T10:34:41;24.00;99.90
4314;DHT22;2170;48.794;9.182;2023-07-29T10:37:18;23.60;99.90
4314;DHT22;2170;48.794;9.182;2023-07-29T10:40:01;23.80;99.90
4314;DHT22;2170;48.794;9.182;2023-07-29T10:43:00;23.70;99.90
4314;DHT22;2170;48.794;9.182;2023-07-29T10:45:47;23.40;99.90
4314;DHT22;2170;48.794;9.182;2023-07-29T10:48:42;23.20;99.90
4314;DHT22;2170;48.794;9.182;2023-07-29T10:51:28;23.00;99.90
4314;DHT22;2170;48.794;9.182;2023-07-29T10:54:12;22.90;99.90
4314;DHT22;2170;48.794;9.182;2023-07-29T10:59:57;23.10;99.90
4314;DHT22;2170;48.794;9.182;2023-07-29T11:02:32;24.00;99.90
4314;DHT22;2170;48.794;9.182;2023-07-29T11:05:16;24.50;99.90
4314;DHT22;2170;48.794;9.182;2023-07-29T11:07:49;24.70;99.90
4314;DHT22;2170;48.794;9.182;2023-07-29T11:10:21;24.90;99.90
4314;DHT22;2170;48.794;9.182;2023-07-29T11:12:51;24.90;99.90
4314;DHT22;2170;48.794;9.182;2023-07-29T11:15:25;25.30;99.90
4314;DHT22;2170;48.794;9.182;2023-07-29T11:18:01;25.40;99.90
4314;DHT22;2170;48.794;9.182;2023-07-29T11:20:46;25.20;99.90
4314;DHT22;2170;48.794;9.182;2023-07-29T11:23:22;24.90;99.90
4314;DHT22;2170;48.794;9.182;2023-07-29T11:26:02;24.90;99.90
4314;DHT22;2170;48.794;9.182;2023-07-29T11:28:48;24.90;99.90
4314;DHT22;2170;48.794;9.182;2023-07-29T11:31:44;25.00;99.90
4314;DHT22;2170;48.794;9.182;2023-07-29T11:34:30;25.00;99.90
4314;DHT22;2170;48.794;9.182;2023-07-29T11:37:42;25.10;99.90
4314;DHT22;2170;48.794;9.182;2023-07-29T11:40:07;25.30;99.90
4314;DHT22;2170;48.794;9.182;2023-07-29T11:42:46;25.40;99.90
4314;DHT22;2170;48.794;9.182;2023-07-29T11:45:23;25.60;99.90
4314;DHT22;2170;48.794;9.182;2023-07-29T11:48:07;25.60;99.90
4314;DHT22;2170;48.794;9.182;2023-07-29T11:50:38;25.30;99.90
4314;DHT22;2170;48.794;9.182;2023-07-29T11:53:22;25.10;99.90
4314;DHT22;2170;48.794;9.182;2023-07-29T11:59:12;25.60;99.90
4314;DHT22;2170;48.794;9.182;2023-07-29T12:02:06;25.50;99.90
4314;DHT22;2170;48.794;9.182;2023-07-29T12:04:44;26.00;99.90
4314;DHT22;2170;48.794;9.182;2023-07-29T12:07:22;26.20;99.90
4314;DHT22;2170;48.794;9.182;2023-07-29T12:10:18;26.20;99.90
4314;DHT22;2170;48.794;9.182;2023-07-29T12:12:53;25.90;99.90
4314;DHT22;2170;48.794;9.182;2023-07-29T12:18:16;26.50;99.90
4314;DHT22;2170;48.794;9.182;2023-07-29T12:20:50;26.70;99.90
4314;DHT22;2170;48.794;9.182;2023-07-29T12:23:27;26.80;99.90
4314;DHT22;2170;48.794;9.182;2023-07-29T12:26:10;27.00;99.90
4314;DHT22;2170;48.794;9.182;2023-07-29T12:28:46;27.10;99.90
4314;DHT22;2170;48.794;9.182;2023-07-29T12:31:19;27.70;99.90
4314;DHT22;2170;48.794;9.182;2023-07-29T12:34:07;27.90;99.90
4314;DHT22;2170;48.794;9.182;2023-07-29T12:36:47;27.80;99.90
4314;DHT22;2170;48.794;9.182;2023-07-29T12:39:27;28.50;99.90
4314;DHT22;2170;48.794;9.182;2023-07-29T12:42:20;28.20;99.90
4314;DHT22;2170;48.794;9.182;2023-07-29T12:45:15;28.10;99.90
4314;DHT22;2170;48.794;9.182;2023-07-29T12:48:13;28.20;99.90
4314;DHT22;2170;48.794;9.182;2023-07-29T12:50:41;28.30;99.90
4314;DHT22;2170;48.794;9.182;2023-07-29T12:53:31;28.50;99.90
4314;DHT22;2170;48.794;9.182;2023-07-29T12:56:24;28.80;99.90
4314;DHT22;2170;48.794;9.182;2023-07-29T12:59:26;28.90;99.90
4314;DHT22;2170;48.794;9.182;2023-07-29T13:02:10;28.40;99.90
4314;DHT22;2170;48.794;9.182;2023-07-29T13:04:56;28.30;99.90
4314;DHT22;2170;48.794;9.182;2023-07-29T13:12:06;28.90;99.90
4314;DHT22;2170;48.794;9.182;2023-07-29T13:14:28;29.30;99.90
4314;DHT22;2170;48.794;9.182;2023-07-29T13:17:24;28.90;99.90
4314;DHT22;2170;48.794;9.182;2023-07-29T13:23:40;29.50;99.90
4314;DHT22;2170;48.794;9.182;2023-07-29T13:28:18;29.30;99.90
4314;DHT22;2170;48.794;9.182;2023-07-29T13:30:15;28.90;99.90
4314;DHT22;2170;48.794;9.182;2023-07-29T13:36:30;28.70;99.90
4314;DHT22;2170;48.794;9.182;2023-07-29T13:39:15;28.60;99.90
4314;DHT22;2170;48.794;9.182;2023-07-29T13:41:48;28.50;99.90
4314;DHT22;2170;48.794;9.182;2023-07-29T13:44:27;28.30;99.90
4314;DHT22;2170;48.794;9.182;2023-07-29T13:47:20;28.20;99.90
4314;DHT22;2170;48.794;9.182;2023-07-29T13:50:09;28.00;99.90
4314;DHT22;2170;48.794;9.182;2023-07-29T13:53:09;28.30;99.90
4314;DHT22;2170;48.794;9.182;2023-07-29T13:56:00;28.10;99.90
4314;DHT22;2170;48.794;9.182;2023-07-29T14:01:33;27.80;99.90
4314;DHT22;2170;48.794;9.182;2023-07-29T14:04:16;27.70;99.90
4314;DHT22;2170;48.794;9.182;2023-07-29T14:06:50;27.60;99.90
4314;DHT22;2170;48.794;9.182;2023-07-29T14:09:28;27.20;99.90
4314;DHT22;2170;48.794;9.182;2023-07-29T14:12:00;27.60;99.90
4314;DHT22;2170;48.794;9.182;2023-07-29T14:14:35;27.60;99.90
4314;DHT22;2170;48.794;9.182;2023-07-29T14:17:35;27.70;99.90
4314;DHT22;2170;48.794;9.182;2023-07-29T14:20:28;27.70;99.90
4314;DHT22;2170;48.794;9.182;2023-07-29T14:23:05;27.70;99.90
4314;DHT22;2170;48.794;9.182;2023-07-29T14:29:20;28.60;99.90
4314;DHT22;2170;48.794;9.182;2023-07-29T14:32:14;28.50;99.90
4314;DHT22;2170;48.794;9.182;2023-07-29T14:38:47;28.30;99.90
4314;DHT22;2170;48.794;9.182;2023-07-29T14:41:40;28.10;99.90
4314;DHT22;2170;48.794;9.182;2023-07-29T14:44:32;27.60;99.90
4314;DHT22;2170;48.794;9.182;2023-07-29T14:47:39;27.10;99.90
4314;DHT22;2170;48.794;9.182;2023-07-29T14:50:21;27.30;99.90
4314;DHT22;2170;48.794;9.182;2023-07-29T14:52:56;26.60;99.90
4314;DHT22;2170;48.794;9.182;2023-07-29T14:55:40;26.90;99.90
4314;DHT22;2170;48.794;9.182;2023-07-29T14:58:26;27.40;99.90
4314;DHT22;2170;48.794;9.182;2023-07-29T15:01:19;26.80;99.90
4314;DHT22;2170;48.794;9.182;2023-07-29T15:03:49;26.60;99.90
4314;DHT22;2170;48.794;9.182;2023-07-29T15:06:18;26.70;99.90
4314;DHT22;2170;48.794;9.182;2023-07-29T15:08:47;26.90;99.90
4314;DHT22;2170;48.794;9.182;2023-07-29T15:11:20;27.00;99.90
4314;DHT22;2170;48.794;9.182;2023-07-29T15:13:53;26.90;99.90
4314;DHT22;2170;48.794;9.182;2023-07-29T15:16:31;26.90;99.90
4314;DHT22;2170;48.794;9.182;2023-07-29T15:19:13;26.80;99.90
4314;DHT22;2170;48.794;9.182;2023-07-29T15:21:54;27.20;99.90
4314;DHT22;2170;48.794;9.182;2023-07-29T15:24:34;26.70;99.90
4314;DHT22;2170;48.794;9.182;2023-07-29T15:27:19;26.70;99.90
4314;DHT22;2170;48.794;9.182;2023-07-29T15:30:04;26.90;99.90
4314;DHT22;2170;48.794;9.182;2023-07-29T15:33:16;27.10;99.90
4314;DHT22;2170;48.794;9.182;2023-07-29T15:36:03;27.10;99.90
4314;DHT22;2170;48.794;9.182;2023-07-29T15:38:47;27.30;99.90
4314;DHT22;2170;48.794;9.182;2023-07-29T15:41:25;27.40;99.90
4314;DHT22;2170;48.794;9.182;2023-07-29T15:44:07;27.40;99.90
4314;DHT22;2170;48.794;9.182;2023-07-29T15:46:40;27.50;99.90
4314;DHT22;2170;48.794;9.182;2023-07-29T15:49:22;27.70;99.90
4314;DHT22;2170;48.794;9.182;2023-07-29T15:52:03;27.70;99.90
4314;DHT22;2170;48.794;9.182;2023-07-29T15:54:41;27.60;99.90
4314;DHT22;2170;48.794;9.182;2023-07-29T15:57:14;27.90;99.90
4314;DHT22;2170;48.794;9.182;2023-07-29T15:59:44;27.60;99.90
4314;DHT22;2170;48.794;9.182;2023-07-29T16:02:20;26.90;99.90
4314;DHT22;2170;48.794;9.182;2023-07-29T16:04:47;26.90;99.90
4314;DHT22;2170;48.794;9.182;2023-07-29T16:07:23;26.90;99.90
4314;DHT22;2170;48.794;9.182;2023-07-29T16:09:59;27.00;99.90
4314;DHT22;2170;48.794;9.182;2023-07-29T16:12:39;27.10;99.90
4314;DHT22;2170;48.794;9.182;2023-07-29T16:15:25;27.50;99.90
4314;DHT22;2170;48.794;9.182;2023-07-29T16:17:57;27.80;99.90
4314;DHT22;2170;48.794;9.182;2023-07-29T16:20:46;27.90;99.90
4314;DHT22;2170;48.794;9.182;2023-07-29T16:23:37;28.20;99.90
4314;DHT22;2170;48.794;9.182;2023-07-29T16:26:23;28.30;99.90
4314;DHT22;2170;48.794;9.182;2023-07-29T16:29:05;28.30;99.90
4314;DHT22;2170;48.794;9.182;2023-07-29T16:35:10;28.10;99.90
4314;DHT22;2170;48.794;9.182;2023-07-29T16:38:16;27.90;99.90
4314;DHT22;2170;48.794;9.182;2023-07-29T16:41:15;27.80;99.90
4314;DHT22;2170;48.794;9.182;2023-07-29T16:44:20;27.80;99.90
4314;DHT22;2170;48.794;9.182;2023-07-29T16:47:08;27.90;99.90
4314;DHT22;2170;48.794;9.182;2023-07-29T16:50:08;27.80;99.90
4314;DHT22;2170;48.794;9.182;2023-07-29T16:52:58;27.50;99.90
4314;DHT22;2170;48.794;9.182;2023-07-29T16:56:04;27.50;99.90
4314;DHT22;2170;48.794;9.182;2023-07-29T16:59:17;27.90;99.90
4314;DHT22;2170;48.794;9.182;2023-07-29T17:02:06;28.00;99.90
4314;DHT22;2170;48.794;9.182;2023-07-29T17:04:46;28.30;99.90
4314;DHT22;2170;48.794;9.182;2023-07-29T17:10:27;27.50;99.90
4314;DHT22;2170;48.794;9.182;2023-07-29T17:16:03;26.90;99.90
4314;DHT22;2170;48.794;9.182;2023-07-29T17:26:20;26.30;99.90
4314;DHT22;2170;48.794;9.182;2023-07-29T17:29:28;26.10;99.90
4314;DHT22;2170;48.794;9.182;2023-07-29T17:32:32;26.20;99.90
4314;DHT22;2170;48.794;9.182;2023-07-29T17:45:38;24.70;99.90
4314;DHT22;2170;48.794;9.182;2023-07-29T17:51:33;24.50;99.90
4314;DHT22;2170;48.794;9.182;2023-07-29T17:57:56;24.40;99.90
4314;DHT22;2170;48.794;9.182;2023-07-29T18:00:56;24.10;99.90
4314;DHT22;2170;48.794;9.182;2023-07-29T18:04:09;23.80;99.90
4314;DHT22;2170;48.794;9.182;2023-07-29T18:07:15;24.00;99.90
4314;DHT22;2170;48.794;9.182;2023-07-29T18:16:56;23.60;99.90
4314;DHT22;2170;48.794;9.182;2023-07-29T18:20:05;23.50;99.90
4314;DHT22;2170;48.794;9.182;2023-07-29T18:29:18;23.40;99.90
4314;DHT22;2170;48.794;9.182;2023-07-29T18:32:30;23.30;99.90
4314;DHT22;2170;48.794;9.182;2023-07-29T18:35:34;23.20;99.90
4314;DHT22;2170;48.794;9.182;2023-07-29T18:38:06;23.00;99.90
4314;DHT22;2170;48.794;9.182;2023-07-29T18:40:42;23.00;99.90
4314;DHT22;2170;48.794;9.182;2023-07-29T18:43:33;22.90;99.90
4314;DHT22;2170;48.794;9.182;2023-07-29T18:46:23;22.90;99.90
4314;DHT22;2170;48.794;9.182;2023-07-29T18:48:58;22.80;99.90
4314;DHT22;2170;48.794;9.182;2023-07-29T18:51:31;22.70;99.90
4314;DHT22;2170;48.794;9.182;2023-07-29T18:54:01;22.70;99.90
4314;DHT22;2170;48.794;9.182;2023-07-29T18:56:30;22.60;99.90
4314;DHT22;2170;48.794;9.182;2023-07-29T18:59:04;22.50;99.90
4314;DHT22;2170;48.794;9.182;2023-07-29T19:01:38;22.40;99.90
4314;DHT22;2170;48.794;9.182;2023-07-29T19:04:10;22.30;99.90
4314;DHT22;2170;48.794;9.182;2023-07-29T19:06:42;22.30;99.90
4314;DHT22;2170;48.794;9.182;2023-07-29T19:09:11;22.20;99.90
4314;DHT22;2170;48.794;9.182;2023-07-29T19:11:54;22.20;99.90
4314;DHT22;2170;48.794;9.182;2023-07-29T19:14:29;22.10;99.90
4314;DHT22;2170;48.794;9.182;2023-07-29T19:17:05;22.10;99.90
4314;DHT22;2170;48.794;9.182;2023-07-29T19:19:54;22.00;99.90
4314;DHT22;2170;48.794;9.182;2023-07-29T19:22:26;21.90;99.90
4314;DHT22;2170;48.794;9.182;2023-07-29T19:25:03;21.90;99.90
4314;DHT22;2170;48.794;9.182;2023-07-29T19:28:04;22.00;99.90
4314;DHT22;2170;48.794;9.182;2023-07-29T19:30:36;21.90;99.90
4314;DHT22;2170;48.794;9.182;2023-07-29T19:33:11;21.90;99.90
4314;DHT22;2170;48.794;9.182;2023-07-29T19:35:59;21.90;99.90
4314;DHT22;2170;48.794;9.182;2023-07-29T19:38:40;21.90;99.90
4314;DHT22;2170;48.794;9.182;2023-07-29T19:41:17;21.90;99.90
4314;DHT22;2170;48.794;9.182;2023-07-29T19:44:02;21.80;99.90
4314;DHT22;2170;48.794;9.182;2023-07-29T19:46:30;21.80;99.90
4314;DHT22;2170;48.794;9.182;2023-07-29T19:49:01;21.80;99.90
4314;DHT22;2170;48.794;9.182;2023-07-29T19:51:41;21.80;99.90
4314;DHT22;2170;48.794;9.182;2023-07-29T19:54:13;21.70;99.90
4314;DHT22;2170;48.794;9.182;2023-07-29T19:56:47;21.70;99.90
4314;DHT22;2170;48.794;9.182;2023-07-29T19:59:19;21.50;99.90
4314;DHT22;2170;48.794;9.182;2023-07-29T20:02:10;21.60;99.90
4314;DHT22;2170;48.794;9.182;2023-07-29T20:04:51;21.50;99.90
4314;DHT22;2170;48.794;9.182;2023-07-29T20:07:22;21.50;99.90
4314;DHT22;2170;48.794;9.182;2023-07-29T20:09:50;21.50;99.90
4314;DHT22;2170;48.794;9.182;2023-07-29T20:12:25;21.50;99.90
4314;DHT22;2170;48.794;9.182;2023-07-29T20:14:58;21.40;99.90
4314;DHT22;2170;48.794;9.182;2023-07-29T20:17:34;21.40;99.90
4314;DHT22;2170;48.794;9.182;2023-07-29T20:20:53;21.40;99.90
4314;DHT22;2170;48.794;9.182;2023-07-29T20:23:47;21.40;99.90
4314;DHT22;2170;48.794;9.182;2023-07-29T20:26:21;21.30;99.90
4314;DHT22;2170;48.794;9.182;2023-07-29T20:33:35;21.30;99.90
4314;DHT22;2170;48.794;9.182;2023-07-29T20:36:01;21.20;99.90
4314;DHT22;2170;48.794;9.182;2023-07-29T20:42:19;21.20;99.90
4314;DHT22;2170;48.794;9.182;2023-07-29T20:45:19;21.20;99.90
4314;DHT22;2170;48.794;9.182;2023-07-29T20:47:47;21.10;99.90
4314;DHT22;2170;48.794;9.182;2023-07-29T20:50:20;21.10;99.90
4314;DHT22;2170;48.794;9.182;2023-07-29T20:54:45;21.10;99.90
4314;DHT22;2170;48.794;9.182;2023-07-29T20:56:28;21.10;99.90
4314;DHT22;2170;48.794;9.182;2023-07-29T20:59:36;21.10;99.90
4314;DHT22;2170;48.794;9.182;2023-07-29T21:02:37;21.00;99.90
4314;DHT22;2170;48.794;9.182;2023-07-29T21:21:44;21.00;99.90
4314;DHT22;2170;48.794;9.182;2023-07-29T21:24:43;21.00;99.90
4314;DHT22;2170;48.794;9.182;2023-07-29T21:30:46;21.00;99.90
4314;DHT22;2170;48.794;9.182;2023-07-29T21:33:36;21.00;99.90
4314;DHT22;2170;48.794;9.182;2023-07-29T21:36:41;21.00;99.90
4314;DHT22;2170;48.794;9.182;2023-07-29T21:42:22;21.00;99.90
4314;DHT22;2170;48.794;9.182;2023-07-29T21:45:15;21.00;99.90
4314;DHT22;2170;48.794;9.182;2023-07-29T21:54:01;20.90;99.90
4314;DHT22;2170;48.794;9.182;2023-07-29T21:56:43;20.70;99.90
4314;DHT22;2170;48.794;9.182;2023-07-29T21:59:44;20.90;99.90
4314;DHT22;2170;48.794;9.182;2023-07-29T22:02:50;20.80;99.90
4314;DHT22;2170;48.794;9.182;2023-07-29T22:05:33;20.80;99.90
4314;DHT22;2170;48.794;9.182;2023-07-29T22:09:01;20.80;99.90
4314;DHT22;2170;48.794;9.182;2023-07-29T22:11:29;20.80;99.90
4314;DHT22;2170;48.794;9.182;2023-07-29T22:14:10;20.80;99.90
4314;DHT22;2170;48.794;9.182;2023-07-29T22:16:43;20.80;99.90
4314;DHT22;2170;48.794;9.182;2023-07-29T22:19:38;20.80;99.90
4314;DHT22;2170;48.794;9.182;2023-07-29T22:22:17;20.90;99.90
4314;DHT22;2170;48.794;9.182;2023-07-29T22:24:50;20.80;99.90
4314;DHT22;2170;48.794;9.182;2023-07-29T22:27:24;20.80;99.90
4314;DHT22;2170;48.794;9.182;2023-07-29T22:30:01;20.80;99.90
4314;DHT22;2170;48.794;9.182;2023-07-29T22:32:38;20.70;99.90
4314;DHT22;2170;48.794;9.182;2023-07-29T22:35:15;20.80;99.90
4314;DHT22;2170;48.794;9.182;2023-07-29T22:37:49;20.80;99.90
4314;DHT22;2170;48.794;9.182;2023-07-29T22:40:25;20.80;99.90
4314;DHT22;2170;48.794;9.182;2023-07-29T22:43:02;20.70;99.90
4314;DHT22;2170;48.794;9.182;2023-07-29T22:45:37;20.70;99.90
4314;DHT22;2170;48.794;9.182;2023-07-29T22:48:19;20.50;99.90
4314;DHT22;2170;48.794;9.182;2023-07-29T22:51:04;20.40;99.90
4314;DHT22;2170;48.794;9.182;2023-07-29T22:54:04;20.20;99.90